Station Name: Melbourne Gliding Club - YBSS

Location: Parwan, VIC, Australia
Last Updated on Dec 5 2020, 11:17 am AEDT
 
Wind Direction: North
Wind Degrees: 360
Wind Speed (kts): 22
Wind 10 min AVG (kts): 23
Wind 10 min gust (kts): 34
Estimated Cloudbase QNH: 10000 feet
Temperature (C): 24.6
Dewpoint (C): 5.6
Soil temp (C): 25.4
UV index: 1.2
.
Temperature HIGH (day): 24.8 at 1:12am
Temperature LOW (day): 20.6 at 12:00am
Humidity: 29% Feels like: 21.7
Barometer: 980.4 mb Falling Rapidly
Solar radiation (W/m2): 148
------- .
Sunrise: 12:28am
Sunset: 1:47pm
Rain past 24hrs: 0 mm
Seaonal total: 67.6 mm
Soil temp (C): 25.4
Soil moisture* (cb): 34 (1-4 use sealed areas, 10+ is dry)
Indoor Temperature (C): 20
Indoor Humidity: 24%


TAF AMD YMAV 161055Z 1611/1712 25012KT 9999 BKN040 FM162200 23012KT 9999 SCT040 FM170300 18014KT 9999 SCT040 FM170900 25010KT CAVOK

YMAV 161330Z AUTO 27007KT 9999 // BKN049 12/10 Q1016 RF00.0/000.0